Time;durP1;ratioP1;P1;durP2;ratioP2;P2;SDS_P1;SDS_P2;PMS_P1;PMS_P2;Temp;Humidity;BMP_temperature;BMP_pressure;BME280_temperature;BME280_humidity;BME280_pressure;Samples;Min_cycle;Max_cycle;Signal;HPM_P1;HPM_P2
2023/07/07 00:00:23;;;;;;;4.30;2.53;;;;;;;17.05;55.95;99409.31;7198142;40;20253;31
2023/07/07 00:11:04;;;;;;;4.37;2.73;;;;;;;16.86;56.77;99406.50;7246347;39;20369;31
2023/07/07 00:21:27;;;;;;;4.33;2.40;;;;;;;16.64;57.46;99412.03;7260069;40;20310;31
2023/07/07 00:32:05;;;;;;;3.25;2.45;;;;;;;16.50;57.86;99414.84;7306743;39;20276;31
2023/07/07 00:42:41;;;;;;;3.40;2.50;;;;;;;16.35;59.50;99414.13;7288163;39;20377;31
2023/07/07 00:53:19;;;;;;;3.90;2.50;;;;;;;16.38;58.70;99416.44;7300433;39;20272;31
2023/07/07 01:03:55;;;;;;;6.20;3.00;;;;;;;16.21;59.84;99422.19;7254727;40;20304;31
2023/07/07 01:14:32;;;;;;;3.73;2.77;;;;;;;16.25;58.92;99422.63;7290845;39;20355;31
2023/07/07 01:25:17;;;;;;;5.67;3.00;;;;;;;16.30;58.74;99422.03;7285986;39;20339;31
2023/07/07 01:30:48;;;;;;;4.37;2.60;;;;;;;16.31;57.91;99413.69;7234997;40;20266;31
2023/07/07 01:36:05;;;;;;;4.15;2.95;;;;;;;16.43;57.91;99417.53;7239590;40;20265;31
2023/07/07 01:41:40;;;;;;;4.37;2.80;;;;;;;16.47;57.29;99426.12;7255210;40;20249;31
2023/07/07 01:47:14;;;;;;;4.23;2.63;;;;;;;16.49;58.42;99424.06;7245281;40;20248;31
2023/07/07 01:52:49;;;;;;;4.80;2.70;;;;;;;16.56;57.31;99425.78;7244095;40;20254;31
2023/07/07 01:58:21;;;;;;;4.17;2.80;;;;;;;16.60;57.13;99429.81;7254594;40;20260;31
2023/07/07 02:03:54;;;;;;;4.07;2.50;;;;;;;16.55;57.48;99428.69;7197232;40;21424;31
2023/07/07 02:09:11;;;;;;;3.65;2.80;;;;;;;16.45;57.60;99420.91;7211083;40;20364;31
2023/07/07 02:14:47;;;;;;;3.85;2.55;;;;;;;16.39;57.23;99429.00;7237188;40;20412;31
2023/07/07 02:20:20;;;;;;;3.50;2.83;;;;;;;16.37;57.98;99425.62;7211034;40;20348;31
2023/07/07 02:25:55;;;;;;;4.70;2.70;;;;;;;16.31;58.39;99431.88;7231503;40;21498;31
2023/07/07 02:31:27;;;;;;;4.20;2.55;;;;;;;16.36;58.00;99434.84;7233786;40;20434;31
2023/07/07 02:37:10;;;;;;;4.40;3.00;;;;;;;16.42;58.42;99429.44;7192291;40;20392;31
2023/07/07 02:42:35;;;;;;;3.13;2.50;;;;;;;16.61;56.50;99428.78;7224818;40;20281;31
2023/07/07 02:47:53;;;;;;;6.05;2.70;;;;;;;16.77;56.19;99432.19;7165317;40;20251;31
2023/07/07 02:53:28;;;;;;;2.90;2.33;;;;;;;16.87;55.70;99435.41;7172662;40;21771;31
2023/07/07 02:59:00;;;;;;;2.93;2.63;;;;;;;16.52;57.62;99434.53;7200274;40;20298;31
2023/07/07 03:04:35;;;;;;;3.85;2.80;;;;;;;16.27;57.52;99439.59;7193696;40;20265;31
2023/07/07 03:10:08;;;;;;;6.63;2.97;;;;;;;16.24;58.45;99429.09;7191036;40;20247;31
2023/07/07 03:15:40;;;;;;;4.20;2.77;;;;;;;16.05;58.75;99425.19;7214125;40;20287;31
2023/07/07 03:21:08;;;;;;;3.27;2.60;;;;;;;15.87;59.75;99426.69;7233077;40;20239;31
2023/07/07 03:26:41;;;;;;;8.23;2.70;;;;;;;15.70;61.12;99434.25;7172064;40;20243;31
2023/07/07 03:32:13;;;;;;;3.87;2.70;;;;;;;15.62;60.09;99437.13;7192563;40;20246;31
2023/07/07 03:37:49;;;;;;;5.30;3.20;;;;;;;15.58;60.17;99430.34;7171160;40;20263;31
2023/07/07 03:43:21;;;;;;;3.95;3.00;;;;;;;15.55;61.50;99433.47;7170557;40;20261;31
2023/07/07 03:48:53;;;;;;;5.20;2.70;;;;;;;15.56;60.00;99435.16;7204421;40;20257;31
2023/07/07 03:54:25;;;;;;;5.57;3.00;;;;;;;15.92;59.46;99437.81;7195688;40;20361;31
2023/07/07 04:00:03;;;;;;;6.25;3.35;;;;;;;15.75;60.08;99439.97;7152052;40;20270;31
2023/07/07 04:05:36;;;;;;;5.75;3.15;;;;;;;15.63;60.82;99452.34;7091078;41;20585;31
2023/07/07 04:11:11;;;;;;;4.23;3.03;;;;;;;15.52;60.56;99442.84;7071941;41;20244;31
2023/07/07 04:16:44;;;;;;;4.15;3.00;;;;;;;15.73;60.15;99436.59;7095756;40;20287;31
2023/07/07 04:22:17;;;;;;;4.70;2.75;;;;;;;16.00;59.31;99445.84;7158949;40;20267;31
2023/07/07 04:27:35;;;;;;;8.43;2.87;;;;;;;15.84;60.53;99451.56;7216656;40;20369;31
2023/07/07 04:33:07;;;;;;;4.27;2.97;;;;;;;15.66;61.28;99450.13;7246951;40;20280;31
2023/07/07 04:38:39;;;;;;;6.80;2.70;;;;;;;15.90;60.02;99446.16;7268329;39;21231;31
2023/07/07 04:44:08;;;;;;;5.90;2.90;;;;;;;16.16;60.07;99451.84;7279795;39;20393;31
2023/07/07 04:49:41;;;;;;;3.40;2.90;;;;;;;16.24;60.14;99457.12;7233955;40;20335;31
2023/07/07 04:55:16;;;;;;;5.13;2.50;;;;;;;16.30;60.17;99465.53;7215903;40;20266;31
2023/07/07 05:00:49;;;;;;;5.67;3.27;;;;;;;16.38;61.05;99454.50;7202071;40;20285;31
2023/07/07 05:11:27;;;;;;;7.70;3.43;;;;;;;16.72;60.49;99460.03;7237255;40;20272;31
2023/07/07 05:22:03;;;;;;;7.60;2.80;;;;;;;17.12;60.08;99469.25;7237287;40;20273;31
2023/07/07 05:27:39;;;;;;;8.13;3.07;;;;;;;17.33;59.45;99474.59;7272432;40;21240;31
2023/07/07 05:38:18;;;;;;;3.90;2.27;;;;;;;17.83;56.94;99472.50;7315066;39;20264;31
2023/07/07 05:48:58;;;;;;;4.20;2.80;;;;;;;18.24;55.95;99475.09;7235636;40;20270;31
2023/07/07 05:59:37;;;;;;;6.73;2.90;;;;;;;18.68;54.87;99472.59;7264127;40;20288;31
2023/07/07 06:10:17;;;;;;;5.80;2.75;;;;;;;19.20;53.79;99462.56;7334976;39;20329;31
2023/07/07 06:15:37;;;;;;;4.77;2.70;;;;;;;19.49;53.24;99470.25;7251740;40;20265;31
2023/07/07 06:21:09;;;;;;;4.33;2.70;;;;;;;19.63;53.59;99463.69;7258956;39;20410;31
2023/07/07 06:31:49;;;;;;;5.17;2.80;;;;;;;20.14;51.85;99477.25;7270129;39;20635;31
2023/07/07 06:37:21;;;;;;;4.80;2.80;;;;;;;20.35;51.92;99472.50;7315709;39;21401;31
2023/07/07 06:42:58;;;;;;;7.27;3.20;;;;;;;20.62;51.81;99488.47;7257970;40;20246;31
2023/07/07 06:48:32;;;;;;;7.45;2.55;;;;;;;20.88;50.92;99492.03;7232385;40;20277;31
2023/07/07 06:53:52;;;;;;;5.07;2.87;;;;;;;21.13;48.91;99492.88;7212254;40;20262;31
2023/07/07 06:59:12;;;;;;;3.73;2.50;;;;;;;21.34;47.46;99506.13;7203204;40;20340;31
2023/07/07 07:04:46;;;;;;;5.10;3.00;;;;;;;21.51;46.94;99515.41;7223368;39;20251;31
2023/07/07 07:10:18;;;;;;;5.87;2.90;;;;;;;21.71;44.78;99500.63;7278541;39;20244;31
2023/07/07 07:15:35;;;;;;;4.97;2.60;;;;;;;21.88;46.37;99493.41;7065146;40;21432;31
2023/07/07 07:21:06;;;;;;;6.10;2.73;;;;;;;22.09;45.77;99501.16;7238928;40;20384;31
2023/07/07 07:26:23;;;;;;;4.00;2.50;;;;;;;22.26;44.76;99501.31;7270302;39;20271;31
2023/07/07 07:31:56;;;;;;;3.62;2.60;;;;;;;22.41;44.47;99488.84;7296018;40;20248;31
2023/07/07 07:37:29;;;;;;;2.70;2.25;;;;;;;22.56;43.85;99507.59;7274174;40;20335;31
2023/07/07 07:42:46;;;;;;;5.18;2.72;;;;;;;22.78;43.98;99496.91;7291965;39;20275;31
2023/07/07 07:48:21;;;;;;;3.00;2.50;;;;;;;23.00;43.01;99495.22;7266855;40;20272;31
2023/07/07 07:53:54;;;;;;;3.72;2.35;;;;;;;23.18;42.49;99484.09;7231544;40;20384;31
2023/07/07 07:59:11;;;;;;;4.82;2.58;;;;;;;23.47;42.28;99486.97;7206414;40;20274;31
2023/07/07 08:04:46;;;;;;;5.33;2.50;;;;;;;23.58;42.07;99499.84;7204858;40;20282;31
2023/07/07 08:10:20;;;;;;;7.10;2.60;;;;;;;23.79;41.64;99490.91;7188398;40;20452;31
2023/07/07 08:15:37;;;;;;;4.00;2.50;;;;;;;24.03;41.58;99487.00;7200093;40;21238;31
2023/07/07 08:20:57;;;;;;;2.67;2.20;;;;;;;24.21;40.04;99494.25;7241894;40;20245;31
2023/07/07 08:26:33;;;;;;;4.40;2.67;;;;;;;24.35;40.51;99490.09;7269025;39;20271;31
2023/07/07 08:31:54;;;;;;;2.70;2.25;;;;;;;24.58;41.34;99497.34;7261292;40;20254;31
2023/07/07 08:37:28;;;;;;;4.90;2.45;;;;;;;24.78;40.87;99489.44;7235564;40;20341;31
2023/07/07 08:43:04;;;;;;;6.12;2.60;;;;;;;24.89;38.89;99488.50;7248666;40;20261;31
2023/07/07 08:48:39;;;;;;;5.90;2.60;;;;;;;25.12;40.26;99485.56;7201706;40;20242;31
2023/07/07 08:54:14;;;;;;;3.65;2.50;;;;;;;25.30;38.51;99492.72;7214021;40;20257;31
2023/07/07 08:59:51;;;;;;;5.78;2.33;;;;;;;25.46;39.71;99490.97;7113362;40;20433;31
2023/07/07 09:05:27;;;;;;;7.05;2.85;;;;;;;25.68;39.17;99486.31;7135735;40;20247;31
2023/07/07 09:11:03;;;;;;;6.20;3.30;;;;;;;25.92;38.55;99484.97;7170852;40;20448;31
2023/07/07 09:16:35;;;;;;;3.08;2.78;;;;;;;26.09;38.23;99484.03;7194186;40;20307;31
2023/07/07 09:22:10;;;;;;;5.20;2.90;;;;;;;26.28;38.01;99479.84;7183790;40;20390;31
2023/07/07 09:27:45;;;;;;;6.87;2.83;;;;;;;26.40;37.67;99474.97;7135937;40;20342;31
2023/07/07 09:33:21;;;;;;;6.90;3.07;;;;;;;26.66;37.66;99474.09;7129497;40;20239;31
2023/07/07 09:38:57;;;;;;;5.20;2.83;;;;;;;26.84;37.34;99468.16;7203675;40;20261;31
2023/07/07 09:44:32;;;;;;;5.60;2.80;;;;;;;27.05;37.16;99463.59;7193532;40;20257;31
2023/07/07 09:50:09;;;;;;;4.25;3.00;;;;;;;27.06;36.65;99464.44;7217787;40;20269;31
2023/07/07 09:55:43;;;;;;;7.25;3.10;;;;;;;27.21;36.00;99462.59;7186636;40;20258;31
2023/07/07 10:01:18;;;;;;;3.50;2.86;;;;;;;27.38;36.17;99459.66;7215732;40;20272;31
2023/07/07 10:06:54;;;;;;;4.07;3.12;;;;;;;27.55;34.56;99454.75;7249145;40;20237;31
2023/07/07 10:12:29;;;;;;;4.07;3.35;;;;;;;27.78;35.56;99454.28;7137388;40;20333;31
2023/07/07 10:18:02;;;;;;;5.18;3.47;;;;;;;27.93;34.73;99450.72;7202455;40;20331;31
2023/07/07 10:23:35;;;;;;;11.52;3.76;;;;;;;28.14;34.37;99440.53;7119329;40;20342;31
2023/07/07 10:29:07;;;;;;;5.90;3.55;;;;;;;28.38;35.03;99444.44;7120123;40;20417;31
2023/07/07 10:34:40;;;;;;;9.07;3.87;;;;;;;28.39;33.55;99448.06;7177218;40;20259;31
2023/07/07 10:40:21;;;;;;;4.90;3.60;;;;;;;28.64;33.76;99446.09;7198328;39;20338;31
2023/07/07 10:45:49;;;;;;;4.95;3.75;;;;;;;28.88;33.28;99445.53;7250796;40;20261;31
2023/07/07 10:56:34;;;;;;;6.40;3.70;;;;;;;29.31;33.33;99436.56;7243331;40;21159;31
2023/07/07 11:02:10;;;;;;;5.87;4.33;;;;;;;29.43;32.87;99437.09;7263312;40;20246;31
2023/07/07 11:07:46;;;;;;;6.70;3.90;;;;;;;29.50;32.77;99434.84;7217197;40;20292;31
2023/07/07 11:13:18;;;;;;;5.20;4.00;;;;;;;29.53;32.39;99434.25;7232747;40;20351;31
2023/07/07 11:18:58;;;;;;;4.50;4.05;;;;;;;29.65;32.21;99424.78;7155944;40;20265;31
2023/07/07 11:24:34;;;;;;;5.60;4.10;;;;;;;29.70;33.40;99421.97;7156431;40;20262;31
2023/07/07 11:30:10;;;;;;;5.40;4.55;;;;;;;29.86;31.68;99416.03;7221068;40;20258;31
2023/07/07 11:35:46;;;;;;;7.37;5.05;;;;;;;30.10;31.31;99413.41;7235164;40;20280;31
2023/07/07 11:41:19;;;;;;;5.75;4.70;;;;;;;30.13;31.51;99407.25;7222196;40;20257;31
2023/07/07 11:46:58;;;;;;;6.98;4.44;;;;;;;30.32;31.35;99404.63;7203670;40;20261;31
2023/07/07 11:52:31;;;;;;;5.58;4.84;;;;;;;30.38;31.49;99395.94;7172451;40;20246;31
2023/07/07 11:58:05;;;;;;;5.30;4.57;;;;;;;30.57;31.83;99387.72;7175577;40;20254;31
2023/07/07 12:03:42;;;;;;;5.84;4.64;;;;;;;30.64;31.35;99385.41;7228200;40;20323;31
2023/07/07 12:09:15;;;;;;;7.34;5.04;;;;;;;30.76;31.12;99387.81;7227034;40;20319;31
2023/07/07 12:14:48;;;;;;;5.48;4.70;;;;;;;30.65;31.06;99381.53;7212763;40;20285;31
2023/07/07 12:20:26;;;;;;;7.70;5.20;;;;;;;30.61;30.58;99362.91;7263017;40;20253;31
2023/07/07 12:25:58;;;;;;;6.53;5.28;;;;;;;30.72;30.08;99370.03;7251135;40;20370;31
2023/07/07 12:31:33;;;;;;;6.22;5.22;;;;;;;31.07;30.18;99363.28;7216836;40;20657;31
2023/07/07 12:37:09;;;;;;;6.45;5.12;;;;;;;31.12;28.99;99366.81;7183480;40;20298;31
2023/07/07 12:42:41;;;;;;;7.85;5.37;;;;;;;31.16;29.84;99358.69;7161388;40;20429;31
2023/07/07 12:48:17;;;;;;;7.57;5.43;;;;;;;31.33;30.08;99361.84;7224086;40;20257;31
2023/07/07 12:53:51;;;;;;;8.48;5.24;;;;;;;31.36;29.68;99352.87;7234976;40;20380;31
2023/07/07 12:59:29;;;;;;;6.18;5.43;;;;;;;31.49;28.42;99351.31;7201467;40;20282;31
2023/07/07 13:05:04;;;;;;;6.97;5.90;;;;;;;31.61;28.71;99346.13;7236029;40;20272;31
2023/07/07 13:10:49;;;;;;;9.45;5.60;;;;;;;31.83;28.38;99326.00;7252146;40;21775;31
2023/07/07 13:16:23;;;;;;;7.37;5.08;;;;;;;31.63;26.88;99319.62;7077350;40;21362;31
2023/07/07 13:21:55;;;;;;;8.15;5.10;;;;;;;31.67;27.92;99322.66;7265801;40;20254;31
2023/07/07 13:27:29;;;;;;;7.65;5.50;;;;;;;31.77;28.12;99313.31;7253113;40;20457;31
2023/07/07 13:32:49;;;;;;;6.55;5.30;;;;;;;31.97;26.30;99301.81;7209975;40;20265;31
2023/07/07 13:38:21;;;;;;;7.10;5.50;;;;;;;31.96;27.17;99309.34;7241746;40;21417;31
2023/07/07 13:43:52;;;;;;;8.00;5.15;;;;;;;31.99;26.26;99308.72;7190470;40;20247;31
2023/07/07 13:49:24;;;;;;;5.93;5.32;;;;;;;31.93;26.69;99309.97;7197934;40;21384;31
2023/07/07 13:54:41;;;;;;;10.22;5.28;;;;;;;31.73;27.00;99294.38;7194347;40;20355;31
2023/07/07 14:00:14;;;;;;;7.85;5.30;;;;;;;31.81;26.65;99289.25;7201571;40;20264;31
2023/07/07 14:05:47;;;;;;;7.46;5.08;;;;;;;31.72;26.23;99275.19;7202844;40;20272;31
2023/07/07 14:11:19;;;;;;;7.70;5.18;;;;;;;31.90;25.59;99279.88;7226884;40;20261;31
2023/07/07 14:16:50;;;;;;;6.74;5.72;;;;;;;32.12;26.16;99268.91;7213459;40;20284;31
2023/07/07 14:22:22;;;;;;;9.00;5.37;;;;;;;32.17;26.15;99268.84;7170450;40;21561;31
2023/07/07 14:27:39;;;;;;;8.32;5.50;;;;;;;32.16;26.06;99258.81;7178900;40;20250;31
2023/07/07 14:33:12;;;;;;;7.10;5.12;;;;;;;31.90;24.58;99259.56;7196760;40;20320;31
2023/07/07 14:38:47;;;;;;;6.67;4.93;;;;;;;32.10;24.05;99250.84;7196487;40;20423;31
2023/07/07 14:44:50;;;;;;;8.66;5.42;;;;;;;32.42;26.26;99245.22;7239378;40;20296;31
2023/07/07 14:50:24;;;;;;;7.35;5.18;;;;;;;32.49;24.41;99242.00;7200140;40;20296;31
2023/07/07 14:56:02;;;;;;;9.13;5.70;;;;;;;32.64;25.53;99250.12;7155906;40;20404;31
2023/07/07 15:06:40;;;;;;;6.10;5.03;;;;;;;32.60;24.76;99243.47;7238317;40;20287;31
2023/07/07 15:17:16;;;;;;;8.32;5.68;;;;;;;32.27;25.22;99225.97;7299172;39;20264;31
2023/07/07 15:22:49;;;;;;;7.03;5.30;;;;;;;32.27;23.51;99225.13;7255047;40;21494;31
2023/07/07 15:28:25;;;;;;;7.37;5.53;;;;;;;32.45;23.73;99225.06;7264464;40;20374;31
2023/07/07 15:39:11;;;;;;;7.18;5.30;;;;;;;32.15;23.72;99220.91;7247105;39;20268;31
2023/07/07 15:44:28;;;;;;;7.30;5.68;;;;;;;32.25;25.03;99214.31;7262701;39;21879;31
2023/07/07 15:50:00;;;;;;;7.47;5.78;;;;;;;32.40;24.07;99211.19;7273093;40;20323;31
2023/07/07 15:55:33;;;;;;;9.68;5.95;;;;;;;32.44;25.17;99206.66;7236154;40;20265;31
2023/07/07 16:00:51;;;;;;;8.20;5.64;;;;;;;32.26;23.61;99195.56;7192809;40;20254;31
2023/07/07 16:06:22;;;;;;;8.02;5.82;;;;;;;32.36;24.48;99193.41;7213625;40;20285;31
2023/07/07 16:11:55;;;;;;;6.63;5.50;;;;;;;32.43;22.19;99182.66;7198702;40;20367;31
2023/07/07 16:17:27;;;;;;;7.96;5.62;;;;;;;32.47;25.00;99188.47;7225869;40;20261;31
2023/07/07 16:23:00;;;;;;;9.12;5.46;;;;;;;32.34;24.42;99180.94;7260856;40;20261;31
2023/07/07 16:28:35;;;;;;;7.30;5.65;;;;;;;32.41;24.22;99179.38;7211281;40;20273;31
2023/07/07 16:34:10;;;;;;;9.98;5.92;;;;;;;32.54;23.84;99183.28;7216019;40;20340;31
2023/07/07 16:39:45;;;;;;;11.68;5.68;;;;;;;32.39;22.01;99180.78;7221244;40;20332;31
2023/07/07 16:45:19;;;;;;;9.63;5.93;;;;;;;32.38;23.52;99180.00;7195481;40;20357;31
2023/07/07 16:50:54;;;;;;;7.53;6.10;;;;;;;32.40;24.01;99176.88;7182796;40;20288;31
2023/07/07 16:56:30;;;;;;;7.68;6.05;;;;;;;32.36;24.61;99175.84;7198172;40;20269;31
2023/07/07 17:02:03;;;;;;;11.98;5.97;;;;;;;32.19;24.10;99166.12;7221907;40;20262;31
2023/07/07 17:07:21;;;;;;;8.38;6.10;;;;;;;31.93;24.70;99164.09;7206997;40;20266;31
2023/07/07 17:12:38;;;;;;;7.47;6.10;;;;;;;31.70;25.12;99174.28;7202990;40;20331;31
2023/07/07 17:18:11;;;;;;;9.70;6.55;;;;;;;31.57;25.28;99161.13;7194571;40;20279;31
2023/07/07 17:23:28;;;;;;;7.47;6.22;;;;;;;31.44;25.59;99154.34;7168417;40;20273;31
2023/07/07 17:29:00;;;;;;;8.25;6.30;;;;;;;31.31;26.15;99158.75;7193030;40;20418;31
2023/07/07 17:34:32;;;;;;;8.10;5.95;;;;;;;31.13;26.38;99162.37;7195800;40;20419;31
2023/07/07 17:40:04;;;;;;;8.64;6.40;;;;;;;31.05;26.35;99156.66;7225628;40;20443;31
2023/07/07 17:45:37;;;;;;;8.24;6.10;;;;;;;30.97;26.65;99158.12;7265898;40;20269;31
2023/07/07 17:51:09;;;;;;;9.25;6.22;;;;;;;30.84;26.89;99161.66;7247175;40;20347;31
2023/07/07 17:56:45;;;;;;;11.20;7.60;;;;;;;30.68;27.19;99158.25;7191536;40;20258;31
2023/07/07 18:02:02;;;;;;;8.04;6.54;;;;;;;30.54;27.55;99162.09;7221884;40;20467;31
2023/07/07 18:07:35;;;;;;;9.40;7.00;;;;;;;30.33;28.39;99159.50;7263201;40;20322;31
2023/07/07 18:13:07;;;;;;;8.97;7.57;;;;;;;30.06;30.39;99150.91;7189720;40;20278;31
2023/07/07 18:18:24;;;;;;;13.27;6.65;;;;;;;29.77;30.35;99148.16;7237127;40;20261;31
2023/07/07 18:23:56;;;;;;;10.85;6.25;;;;;;;29.43;32.42;99150.13;7244706;40;20281;31
2023/07/07 18:29:28;;;;;;;9.38;6.60;;;;;;;29.19;32.50;99157.50;7197443;40;20263;31
2023/07/07 18:34:45;;;;;;;8.34;6.14;;;;;;;29.06;31.74;99150.66;7238588;40;20257;31
2023/07/07 18:40:16;;;;;;;8.73;6.90;;;;;;;28.84;33.09;99145.53;7186261;40;20293;31
2023/07/07 18:50:55;;;;;;;9.32;6.40;;;;;;;28.57;33.67;99150.62;7209660;40;20295;31
2023/07/07 19:01:34;;;;;;;8.73;6.85;;;;;;;28.18;35.52;99150.53;7294986;39;20263;31
2023/07/07 19:12:08;;;;;;;9.30;6.10;;;;;;;27.70;36.13;99154.78;7283296;39;20457;31
2023/07/07 19:17:41;;;;;;;7.55;6.15;;;;;;;27.51;36.88;99149.00;7256265;40;20261;31
2023/07/07 19:23:13;;;;;;;9.90;6.57;;;;;;;27.22;37.64;99147.84;7207813;40;20511;31
2023/07/07 19:28:45;;;;;;;10.15;6.20;;;;;;;27.00;36.96;99153.63;7170447;40;20277;31
2023/07/07 19:39:38;;;;;;;8.60;6.20;;;;;;;26.69;36.78;99158.25;7137201;40;20277;31
2023/07/07 19:49:59;;;;;;;8.40;7.30;;;;;;;26.44;36.88;99166.47;7279505;40;21943;31
2023/07/07 19:55:35;;;;;;;9.30;6.57;;;;;;;26.30;36.54;99166.12;7254247;40;20266;31
2023/07/07 20:00:52;;;;;;;8.95;6.85;;;;;;;26.19;36.59;99178.22;7074843;39;20248;31
2023/07/07 20:06:28;;;;;;;9.75;6.90;;;;;;;26.03;36.65;99173.69;7334776;39;20329;31
2023/07/07 20:12:03;;;;;;;10.90;6.70;;;;;;;25.88;37.33;99166.16;7272411;40;20435;31
2023/07/07 20:17:33;;;;;;;10.50;7.20;;;;;;;25.80;37.30;99165.81;7202470;40;20241;31
2023/07/07 20:23:05;;;;;;;7.30;6.20;;;;;;;25.71;37.69;99182.06;7194516;40;20254;31
2023/07/07 20:28:38;;;;;;;9.50;7.00;;;;;;;25.69;37.61;99169.59;7152795;40;20262;31
2023/07/07 20:33:55;;;;;;;9.80;7.90;;;;;;;25.68;37.35;99170.69;7162264;40;20262;31
2023/07/07 20:39:30;;;;;;;10.90;7.66;;;;;;;25.56;38.04;99165.38;7151264;40;20273;31
2023/07/07 20:45:06;;;;;;;11.30;7.30;;;;;;;25.47;37.46;99169.69;7151244;40;20265;31
2023/07/07 20:50:38;;;;;;;9.16;7.58;;;;;;;25.43;37.82;99169.38;7220220;40;20284;31
2023/07/07 20:56:13;;;;;;;9.63;6.90;;;;;;;25.42;37.73;99164.09;7194435;40;20262;31
2023/07/07 21:01:49;;;;;;;9.18;7.37;;;;;;;25.31;38.89;99168.72;7243421;39;20323;31
2023/07/07 21:07:22;;;;;;;12.80;7.80;;;;;;;25.26;38.10;99159.56;7225465;40;20327;31
2023/07/07 21:12:42;;;;;;;9.15;6.93;;;;;;;25.24;38.80;99156.22;7244292;40;20508;31
2023/07/07 21:18:18;;;;;;;10.95;7.50;;;;;;;25.25;38.31;99161.50;7225527;40;20264;31
2023/07/07 21:23:53;;;;;;;10.65;7.20;;;;;;;25.32;36.01;99173.13;7264568;40;20244;31
2023/07/07 21:29:28;;;;;;;9.82;7.22;;;;;;;25.39;36.70;99171.00;7273663;39;20276;31
2023/07/07 21:40:05;;;;;;;10.50;7.40;;;;;;;25.48;35.54;99169.44;7213701;40;21487;31
2023/07/07 21:45:40;;;;;;;11.15;7.85;;;;;;;25.63;33.78;99174.25;7201046;40;21187;31
2023/07/07 21:51:15;;;;;;;10.60;7.63;;;;;;;25.69;33.56;99167.66;7235944;40;20310;31
2023/07/07 21:56:51;;;;;;;10.95;7.95;;;;;;;25.66;34.88;99181.19;7194922;40;20281;31
2023/07/07 22:02:26;;;;;;;10.05;7.50;;;;;;;25.68;34.40;99182.56;7175163;40;20534;31
2023/07/07 22:08:01;;;;;;;14.50;8.30;;;;;;;25.73;34.70;99177.09;7177598;40;20250;31
2023/07/07 22:13:34;;;;;;;10.55;7.43;;;;;;;25.76;33.99;99171.03;7140351;40;20517;31
2023/07/07 22:19:09;;;;;;;10.85;8.10;;;;;;;25.72;34.51;99169.06;7210881;40;20265;31
2023/07/07 22:24:29;;;;;;;11.77;7.73;;;;;;;25.68;34.88;99173.44;7213591;40;20531;31
2023/07/07 22:30:05;;;;;;;11.20;7.70;;;;;;;25.63;34.71;99174.25;7221604;40;20252;31
2023/07/07 22:35:40;;;;;;;9.70;8.05;;;;;;;25.58;34.93;99174.22;7185068;40;20263;31
2023/07/07 22:41:15;;;;;;;9.25;7.07;;;;;;;25.50;35.18;99178.25;7202776;40;20308;31
2023/07/07 22:46:51;;;;;;;8.90;7.10;;;;;;;25.51;35.40;99184.63;7225203;40;20261;31
2023/07/07 22:52:26;;;;;;;8.88;7.32;;;;;;;25.50;35.09;99182.94;7256270;40;21394;31
2023/07/07 22:58:01;;;;;;;9.40;7.78;;;;;;;25.43;36.56;99163.03;7264568;40;20264;31
2023/07/07 23:03:37;;;;;;;9.00;7.15;;;;;;;25.35;35.45;99169.03;7241112;40;20279;31
2023/07/07 23:09:13;;;;;;;10.05;7.90;;;;;;;25.24;35.73;99172.78;7205167;40;20242;31
2023/07/07 23:14:33;;;;;;;9.45;7.50;;;;;;;25.13;36.66;99167.19;7224162;40;20269;31
2023/07/07 23:20:08;;;;;;;10.90;7.95;;;;;;;24.92;38.14;99179.13;7211624;40;20230;31
2023/07/07 23:25:32;;;;;;;14.27;8.18;;;;;;;24.73;38.17;99185.22;7189530;40;20312;31
2023/07/07 23:31:05;;;;;;;10.25;7.30;;;;;;;24.45;39.60;99189.84;7252346;40;20343;31
2023/07/07 23:36:39;;;;;;;9.10;7.05;;;;;;;24.25;40.26;99181.31;7250219;40;20290;31
2023/07/07 23:42:14;;;;;;;12.55;7.30;;;;;;;24.15;38.61;99171.00;7243722;40;20443;31
2023/07/07 23:47:35;;;;;;;9.70;7.50;;;;;;;24.24;37.90;99163.13;7166549;40;20278;31
2023/07/07 23:53:10;;;;;;;14.18;7.53;;;;;;;24.40;38.33;99167.72;7181803;40;20265;31
2023/07/07 23:58:31;;;;;;;9.20;7.00;;;;;;;24.39;37.99;99160.56;7163602;40;20312;31
